sensor_id;sensor_type;location;lat;lon;timestamp;P1;durP1;ratioP1;P2;durP2;ratioP2
10339;SDS011;5215;48.676;9.022;2022-10-16T00:01:55;0.20;;;0.20;;
10339;SDS011;5215;48.676;9.022;2022-10-16T00:04:21;0.55;;;0.52;;
10339;SDS011;5215;48.676;9.022;2022-10-16T00:06:47;1.00;;;0.50;;
10339;SDS011;5215;48.676;9.022;2022-10-16T00:09:14;0.80;;;0.55;;
10339;SDS011;5215;48.676;9.022;2022-10-16T00:11:40;0.55;;;0.50;;
10339;SDS011;5215;48.676;9.022;2022-10-16T00:14:07;0.60;;;0.60;;
10339;SDS011;5215;48.676;9.022;2022-10-16T00:16:35;0.40;;;0.40;;
10339;SDS011;5215;48.676;9.022;2022-10-16T00:19:02;0.52;;;0.52;;
10339;SDS011;5215;48.676;9.022;2022-10-16T00:21:29;0.35;;;0.30;;
10339;SDS011;5215;48.676;9.022;2022-10-16T00:23:57;0.77;;;0.63;;
10339;SDS011;5215;48.676;9.022;2022-10-16T00:26:25;0.43;;;0.43;;
10339;SDS011;5215;48.676;9.022;2022-10-16T00:28:51;0.98;;;0.32;;
10339;SDS011;5215;48.676;9.022;2022-10-16T00:31:18;0.35;;;0.35;;
10339;SDS011;5215;48.676;9.022;2022-10-16T00:33:46;0.35;;;0.35;;
10339;SDS011;5215;48.676;9.022;2022-10-16T00:36:13;0.65;;;0.40;;
10339;SDS011;5215;48.676;9.022;2022-10-16T00:38:40;0.20;;;0.20;;
10339;SDS011;5215;48.676;9.022;2022-10-16T00:41:07;0.43;;;0.43;;
10339;SDS011;5215;48.676;9.022;2022-10-16T00:43:35;0.52;;;0.40;;
10339;SDS011;5215;48.676;9.022;2022-10-16T00:46:02;0.45;;;0.45;;
10339;SDS011;5215;48.676;9.022;2022-10-16T00:48:29;1.38;;;0.28;;
10339;SDS011;5215;48.676;9.022;2022-10-16T00:50:57;0.30;;;0.30;;
10339;SDS011;5215;48.676;9.022;2022-10-16T00:53:24;0.55;;;0.47;;
10339;SDS011;5215;48.676;9.022;2022-10-16T00:55:51;0.10;;;0.10;;
10339;SDS011;5215;48.676;9.022;2022-10-16T00:58:17;0.50;;;0.50;;
10339;SDS011;5215;48.676;9.022;2022-10-16T01:00:43;7.03;;;0.57;;
10339;SDS011;5215;48.676;9.022;2022-10-16T01:03:22;0.30;;;0.30;;
10339;SDS011;5215;48.676;9.022;2022-10-16T01:05:49;0.95;;;0.52;;
10339;SDS011;5215;48.676;9.022;2022-10-16T01:08:21;0.50;;;0.40;;
10339;SDS011;5215;48.676;9.022;2022-10-16T01:10:54;1.35;;;0.70;;
10339;SDS011;5215;48.676;9.022;2022-10-16T01:13:24;0.60;;;0.38;;
10339;SDS011;5215;48.676;9.022;2022-10-16T01:15:54;0.47;;;0.40;;
10339;SDS011;5215;48.676;9.022;2022-10-16T01:18:24;0.65;;;0.55;;
10339;SDS011;5215;48.676;9.022;2022-10-16T01:20:55;2.85;;;0.57;;
10339;SDS011;5215;48.676;9.022;2022-10-16T01:23:31;0.43;;;0.43;;
10339;SDS011;5215;48.676;9.022;2022-10-16T01:26:05;0.50;;;0.45;;
10339;SDS011;5215;48.676;9.022;2022-10-16T01:28:39;0.40;;;0.40;;
10339;SDS011;5215;48.676;9.022;2022-10-16T01:31:05;0.60;;;0.50;;
10339;SDS011;5215;48.676;9.022;2022-10-16T01:33:33;0.40;;;0.40;;
10339;SDS011;5215;48.676;9.022;2022-10-16T01:36:02;0.20;;;0.20;;
10339;SDS011;5215;48.676;9.022;2022-10-16T01:38:30;0.40;;;0.40;;
10339;SDS011;5215;48.676;9.022;2022-10-16T01:40:59;0.47;;;0.40;;
10339;SDS011;5215;48.676;9.022;2022-10-16T01:43:27;0.43;;;0.43;;
10339;SDS011;5215;48.676;9.022;2022-10-16T01:45:56;0.80;;;0.47;;
10339;SDS011;5215;48.676;9.022;2022-10-16T01:48:23;0.28;;;0.28;;
10339;SDS011;5215;48.676;9.022;2022-10-16T01:50:52;2.80;;;0.90;;
10339;SDS011;5215;48.676;9.022;2022-10-16T01:53:20;0.25;;;0.25;;
10339;SDS011;5215;48.676;9.022;2022-10-16T01:55:46;0.30;;;0.30;;
10339;SDS011;5215;48.676;9.022;2022-10-16T01:58:14;0.30;;;0.30;;
10339;SDS011;5215;48.676;9.022;2022-10-16T02:00:42;0.40;;;0.25;;
10339;SDS011;5215;48.676;9.022;2022-10-16T02:03:11;2.65;;;0.60;;
10339;SDS011;5215;48.676;9.022;2022-10-16T02:05:39;3.13;;;0.35;;
10339;SDS011;5215;48.676;9.022;2022-10-16T02:08:06;0.30;;;0.30;;
10339;SDS011;5215;48.676;9.022;2022-10-16T02:10:33;0.70;;;0.55;;
10339;SDS011;5215;48.676;9.022;2022-10-16T02:13:02;10.63;;;0.50;;
10339;SDS011;5215;48.676;9.022;2022-10-16T02:15:29;0.40;;;0.40;;
10339;SDS011;5215;48.676;9.022;2022-10-16T02:17:56;0.90;;;0.52;;
10339;SDS011;5215;48.676;9.022;2022-10-16T02:20:25;0.55;;;0.40;;
10339;SDS011;5215;48.676;9.022;2022-10-16T02:22:52;0.28;;;0.28;;
10339;SDS011;5215;48.676;9.022;2022-10-16T02:25:19;0.20;;;0.20;;
10339;SDS011;5215;48.676;9.022;2022-10-16T02:27:49;0.50;;;0.50;;
10339;SDS011;5215;48.676;9.022;2022-10-16T02:30:19;1.60;;;0.55;;
10339;SDS011;5215;48.676;9.022;2022-10-16T02:32:47;0.30;;;0.30;;
10339;SDS011;5215;48.676;9.022;2022-10-16T02:35:15;0.28;;;0.20;;
10339;SDS011;5215;48.676;9.022;2022-10-16T02:37:44;0.22;;;0.22;;
10339;SDS011;5215;48.676;9.022;2022-10-16T02:40:11;0.22;;;0.22;;
10339;SDS011;5215;48.676;9.022;2022-10-16T02:42:38;0.30;;;0.30;;
10339;SDS011;5215;48.676;9.022;2022-10-16T02:45:06;0.35;;;0.30;;
10339;SDS011;5215;48.676;9.022;2022-10-16T02:47:32;0.35;;;0.30;;
10339;SDS011;5215;48.676;9.022;2022-10-16T02:49:59;0.30;;;0.28;;
10339;SDS011;5215;48.676;9.022;2022-10-16T02:52:25;5.05;;;0.30;;
10339;SDS011;5215;48.676;9.022;2022-10-16T02:54:53;0.35;;;0.20;;
10339;SDS011;5215;48.676;9.022;2022-10-16T02:57:19;0.55;;;0.55;;
10339;SDS011;5215;48.676;9.022;2022-10-16T02:59:46;3.08;;;0.50;;
10339;SDS011;5215;48.676;9.022;2022-10-16T03:02:12;0.32;;;0.32;;
10339;SDS011;5215;48.676;9.022;2022-10-16T03:04:38;0.35;;;0.35;;
10339;SDS011;5215;48.676;9.022;2022-10-16T03:07:04;0.55;;;0.30;;
10339;SDS011;5215;48.676;9.022;2022-10-16T03:09:31;0.90;;;0.50;;
10339;SDS011;5215;48.676;9.022;2022-10-16T03:11:59;0.55;;;0.45;;
10339;SDS011;5215;48.676;9.022;2022-10-16T03:14:25;0.63;;;0.38;;
10339;SDS011;5215;48.676;9.022;2022-10-16T03:16:51;0.20;;;0.20;;
10339;SDS011;5215;48.676;9.022;2022-10-16T03:19:18;0.25;;;0.25;;
10339;SDS011;5215;48.676;9.022;2022-10-16T03:21:44;0.98;;;0.40;;
10339;SDS011;5215;48.676;9.022;2022-10-16T03:24:11;0.93;;;0.60;;
10339;SDS011;5215;48.676;9.022;2022-10-16T03:26:37;0.20;;;0.20;;
10339;SDS011;5215;48.676;9.022;2022-10-16T03:29:05;0.25;;;0.20;;
10339;SDS011;5215;48.676;9.022;2022-10-16T03:31:31;0.25;;;0.20;;
10339;SDS011;5215;48.676;9.022;2022-10-16T03:33:58;0.75;;;0.35;;
10339;SDS011;5215;48.676;9.022;2022-10-16T03:36:24;0.30;;;0.30;;
10339;SDS011;5215;48.676;9.022;2022-10-16T03:38:51;0.57;;;0.57;;
10339;SDS011;5215;48.676;9.022;2022-10-16T03:41:17;0.40;;;0.40;;
10339;SDS011;5215;48.676;9.022;2022-10-16T03:43:43;0.40;;;0.30;;
10339;SDS011;5215;48.676;9.022;2022-10-16T03:46:11;1.27;;;0.45;;
10339;SDS011;5215;48.676;9.022;2022-10-16T03:48:37;0.50;;;0.50;;
10339;SDS011;5215;48.676;9.022;2022-10-16T03:51:04;0.25;;;0.25;;
10339;SDS011;5215;48.676;9.022;2022-10-16T03:53:31;0.10;;;0.10;;
10339;SDS011;5215;48.676;9.022;2022-10-16T03:55:57;1.45;;;0.40;;
10339;SDS011;5215;48.676;9.022;2022-10-16T03:58:24;0.40;;;0.40;;
10339;SDS011;5215;48.676;9.022;2022-10-16T04:00:50;0.40;;;0.40;;
10339;SDS011;5215;48.676;9.022;2022-10-16T04:03:18;0.70;;;0.70;;
10339;SDS011;5215;48.676;9.022;2022-10-16T04:05:46;0.43;;;0.43;;
10339;SDS011;5215;48.676;9.022;2022-10-16T04:08:12;0.40;;;0.40;;
10339;SDS011;5215;48.676;9.022;2022-10-16T04:10:39;0.28;;;0.28;;
10339;SDS011;5215;48.676;9.022;2022-10-16T04:13:05;0.30;;;0.30;;
10339;SDS011;5215;48.676;9.022;2022-10-16T04:15:31;3.53;;;0.50;;
10339;SDS011;5215;48.676;9.022;2022-10-16T04:17:58;0.85;;;0.50;;
10339;SDS011;5215;48.676;9.022;2022-10-16T04:20:26;0.22;;;0.22;;
10339;SDS011;5215;48.676;9.022;2022-10-16T04:22:52;0.40;;;0.40;;
10339;SDS011;5215;48.676;9.022;2022-10-16T04:25:19;0.30;;;0.28;;
10339;SDS011;5215;48.676;9.022;2022-10-16T04:27:45;0.45;;;0.43;;
10339;SDS011;5215;48.676;9.022;2022-10-16T04:30:11;0.30;;;0.30;;
10339;SDS011;5215;48.676;9.022;2022-10-16T04:32:38;0.20;;;0.20;;
10339;SDS011;5215;48.676;9.022;2022-10-16T04:35:05;0.20;;;0.20;;
10339;SDS011;5215;48.676;9.022;2022-10-16T04:37:32;0.10;;;0.10;;
10339;SDS011;5215;48.676;9.022;2022-10-16T04:39:59;1.08;;;0.65;;
10339;SDS011;5215;48.676;9.022;2022-10-16T04:42:25;0.52;;;0.52;;
10339;SDS011;5215;48.676;9.022;2022-10-16T04:44:51;0.60;;;0.60;;
10339;SDS011;5215;48.676;9.022;2022-10-16T04:47:18;0.30;;;0.30;;
10339;SDS011;5215;48.676;9.022;2022-10-16T04:49:44;1.05;;;0.50;;
10339;SDS011;5215;48.676;9.022;2022-10-16T04:52:10;0.50;;;0.50;;
10339;SDS011;5215;48.676;9.022;2022-10-16T04:54:38;0.20;;;0.20;;
10339;SDS011;5215;48.676;9.022;2022-10-16T04:57:04;0.40;;;0.30;;
10339;SDS011;5215;48.676;9.022;2022-10-16T04:59:31;0.32;;;0.30;;
10339;SDS011;5215;48.676;9.022;2022-10-16T05:01:57;0.40;;;0.40;;
10339;SDS011;5215;48.676;9.022;2022-10-16T05:04:23;0.35;;;0.35;;
10339;SDS011;5215;48.676;9.022;2022-10-16T05:06:50;0.68;;;0.50;;
10339;SDS011;5215;48.676;9.022;2022-10-16T05:09:16;0.32;;;0.32;;
10339;SDS011;5215;48.676;9.022;2022-10-16T05:11:44;0.57;;;0.40;;
10339;SDS011;5215;48.676;9.022;2022-10-16T05:14:10;0.22;;;0.22;;
10339;SDS011;5215;48.676;9.022;2022-10-16T05:16:36;0.30;;;0.30;;
10339;SDS011;5215;48.676;9.022;2022-10-16T05:19:03;1.17;;;0.60;;
10339;SDS011;5215;48.676;9.022;2022-10-16T05:21:29;0.30;;;0.30;;
10339;SDS011;5215;48.676;9.022;2022-10-16T05:23:56;0.77;;;0.40;;
10339;SDS011;5215;48.676;9.022;2022-10-16T05:26:22;0.43;;;0.43;;
10339;SDS011;5215;48.676;9.022;2022-10-16T05:28:50;0.57;;;0.57;;
10339;SDS011;5215;48.676;9.022;2022-10-16T05:31:16;0.82;;;0.40;;
10339;SDS011;5215;48.676;9.022;2022-10-16T05:33:42;0.40;;;0.40;;
10339;SDS011;5215;48.676;9.022;2022-10-16T05:36:09;0.60;;;0.45;;
10339;SDS011;5215;48.676;9.022;2022-10-16T05:38:36;0.52;;;0.30;;
10339;SDS011;5215;48.676;9.022;2022-10-16T05:41:03;1.38;;;0.38;;
10339;SDS011;5215;48.676;9.022;2022-10-16T05:43:30;0.38;;;0.38;;
10339;SDS011;5215;48.676;9.022;2022-10-16T05:45:59;0.30;;;0.30;;
10339;SDS011;5215;48.676;9.022;2022-10-16T05:48:25;0.22;;;0.22;;
10339;SDS011;5215;48.676;9.022;2022-10-16T05:50:56;0.90;;;0.40;;
10339;SDS011;5215;48.676;9.022;2022-10-16T05:53:23;0.45;;;0.38;;
10339;SDS011;5215;48.676;9.022;2022-10-16T05:55:54;0.50;;;0.50;;
10339;SDS011;5215;48.676;9.022;2022-10-16T05:58:20;2.20;;;0.82;;
10339;SDS011;5215;48.676;9.022;2022-10-16T06:00:52;0.75;;;0.32;;
10339;SDS011;5215;48.676;9.022;2022-10-16T06:03:20;0.35;;;0.35;;
10339;SDS011;5215;48.676;9.022;2022-10-16T06:05:46;0.30;;;0.30;;
10339;SDS011;5215;48.676;9.022;2022-10-16T06:08:13;1.33;;;0.40;;
10339;SDS011;5215;48.676;9.022;2022-10-16T06:10:39;0.88;;;0.60;;
10339;SDS011;5215;48.676;9.022;2022-10-16T06:13:05;0.35;;;0.35;;
10339;SDS011;5215;48.676;9.022;2022-10-16T06:15:32;0.40;;;0.30;;
10339;SDS011;5215;48.676;9.022;2022-10-16T06:17:58;0.40;;;0.40;;
10339;SDS011;5215;48.676;9.022;2022-10-16T06:20:26;0.80;;;0.40;;
10339;SDS011;5215;48.676;9.022;2022-10-16T06:22:52;0.20;;;0.20;;
10339;SDS011;5215;48.676;9.022;2022-10-16T06:25:18;0.28;;;0.28;;
10339;SDS011;5215;48.676;9.022;2022-10-16T06:27:45;0.20;;;0.20;;
10339;SDS011;5215;48.676;9.022;2022-10-16T06:30:11;0.22;;;0.22;;
10339;SDS011;5215;48.676;9.022;2022-10-16T06:32:37;0.38;;;0.38;;
10339;SDS011;5215;48.676;9.022;2022-10-16T06:35:04;0.57;;;0.57;;
10339;SDS011;5215;48.676;9.022;2022-10-16T06:37:31;0.82;;;0.60;;
10339;SDS011;5215;48.676;9.022;2022-10-16T06:39:58;0.32;;;0.32;;
10339;SDS011;5215;48.676;9.022;2022-10-16T06:42:25;0.45;;;0.35;;
10339;SDS011;5215;48.676;9.022;2022-10-16T06:44:51;0.68;;;0.60;;
10339;SDS011;5215;48.676;9.022;2022-10-16T06:47:18;0.55;;;0.55;;
10339;SDS011;5215;48.676;9.022;2022-10-16T06:49:44;1.33;;;0.90;;
10339;SDS011;5215;48.676;9.022;2022-10-16T06:52:10;1.27;;;0.45;;
10339;SDS011;5215;48.676;9.022;2022-10-16T06:54:38;0.80;;;0.52;;
10339;SDS011;5215;48.676;9.022;2022-10-16T06:57:04;1.05;;;0.47;;
10339;SDS011;5215;48.676;9.022;2022-10-16T06:59:31;0.20;;;0.20;;
10339;SDS011;5215;48.676;9.022;2022-10-16T07:01:57;1.95;;;0.65;;
10339;SDS011;5215;48.676;9.022;2022-10-16T07:04:23;0.50;;;0.50;;
10339;SDS011;5215;48.676;9.022;2022-10-16T07:06:50;0.63;;;0.63;;
10339;SDS011;5215;48.676;9.022;2022-10-16T07:09:16;2.90;;;0.55;;
10339;SDS011;5215;48.676;9.022;2022-10-16T07:11:44;0.43;;;0.43;;
10339;SDS011;5215;48.676;9.022;2022-10-16T07:14:12;0.52;;;0.47;;
10339;SDS011;5215;48.676;9.022;2022-10-16T07:16:40;0.88;;;0.43;;
10339;SDS011;5215;48.676;9.022;2022-10-16T07:19:07;1.00;;;0.65;;
10339;SDS011;5215;48.676;9.022;2022-10-16T07:21:34;0.73;;;0.73;;
10339;SDS011;5215;48.676;9.022;2022-10-16T07:24:01;0.70;;;0.60;;
10339;SDS011;5215;48.676;9.022;2022-10-16T07:26:28;0.82;;;0.55;;
10339;SDS011;5215;48.676;9.022;2022-10-16T07:28:56;0.47;;;0.40;;
10339;SDS011;5215;48.676;9.022;2022-10-16T07:31:22;0.40;;;0.40;;
10339;SDS011;5215;48.676;9.022;2022-10-16T07:33:49;0.57;;;0.55;;
10339;SDS011;5215;48.676;9.022;2022-10-16T07:36:16;0.50;;;0.47;;
10339;SDS011;5215;48.676;9.022;2022-10-16T07:38:43;0.20;;;0.20;;
10339;SDS011;5215;48.676;9.022;2022-10-16T07:41:10;0.80;;;0.52;;
10339;SDS011;5215;48.676;9.022;2022-10-16T07:43:37;0.50;;;0.50;;
10339;SDS011;5215;48.676;9.022;2022-10-16T07:46:05;0.75;;;0.70;;
10339;SDS011;5215;48.676;9.022;2022-10-16T07:48:32;0.68;;;0.50;;
10339;SDS011;5215;48.676;9.022;2022-10-16T07:50:59;1.02;;;0.55;;
10339;SDS011;5215;48.676;9.022;2022-10-16T07:53:26;0.52;;;0.52;;
10339;SDS011;5215;48.676;9.022;2022-10-16T07:55:52;0.30;;;0.30;;
10339;SDS011;5215;48.676;9.022;2022-10-16T07:58:22;0.80;;;0.80;;
10339;SDS011;5215;48.676;9.022;2022-10-16T08:00:49;0.10;;;0.10;;
10339;SDS011;5215;48.676;9.022;2022-10-16T08:03:16;0.40;;;0.40;;
10339;SDS011;5215;48.676;9.022;2022-10-16T08:05:43;0.30;;;0.30;;
10339;SDS011;5215;48.676;9.022;2022-10-16T08:08:11;0.63;;;0.52;;
10339;SDS011;5215;48.676;9.022;2022-10-16T08:10:38;0.28;;;0.28;;
10339;SDS011;5215;48.676;9.022;2022-10-16T08:13:04;0.55;;;0.55;;
10339;SDS011;5215;48.676;9.022;2022-10-16T08:15:30;0.75;;;0.63;;
10339;SDS011;5215;48.676;9.022;2022-10-16T08:17:57;0.90;;;0.40;;
10339;SDS011;5215;48.676;9.022;2022-10-16T08:20:25;2.35;;;0.40;;
10339;SDS011;5215;48.676;9.022;2022-10-16T08:22:52;0.20;;;0.20;;
10339;SDS011;5215;48.676;9.022;2022-10-16T08:25:18;0.40;;;0.40;;
10339;SDS011;5215;48.676;9.022;2022-10-16T08:27:45;0.93;;;0.52;;
10339;SDS011;5215;48.676;9.022;2022-10-16T08:30:11;0.43;;;0.43;;
10339;SDS011;5215;48.676;9.022;2022-10-16T08:32:38;0.30;;;0.30;;
10339;SDS011;5215;48.676;9.022;2022-10-16T08:35:04;0.57;;;0.50;;
10339;SDS011;5215;48.676;9.022;2022-10-16T08:37:32;0.40;;;0.40;;
10339;SDS011;5215;48.676;9.022;2022-10-16T08:39:59;0.40;;;0.40;;
10339;SDS011;5215;48.676;9.022;2022-10-16T08:42:29;0.20;;;0.20;;
10339;SDS011;5215;48.676;9.022;2022-10-16T08:45:03;0.47;;;0.47;;
10339;SDS011;5215;48.676;9.022;2022-10-16T08:47:35;0.38;;;0.38;;
10339;SDS011;5215;48.676;9.022;2022-10-16T08:50:08;0.40;;;0.40;;
10339;SDS011;5215;48.676;9.022;2022-10-16T08:52:38;0.75;;;0.40;;
10339;SDS011;5215;48.676;9.022;2022-10-16T08:55:05;0.35;;;0.35;;
10339;SDS011;5215;48.676;9.022;2022-10-16T08:57:32;0.40;;;0.40;;
10339;SDS011;5215;48.676;9.022;2022-10-16T08:59:59;0.40;;;0.40;;
10339;SDS011;5215;48.676;9.022;2022-10-16T09:02:28;1.30;;;0.50;;
10339;SDS011;5215;48.676;9.022;2022-10-16T09:04:59;2.92;;;0.70;;
10339;SDS011;5215;48.676;9.022;2022-10-16T09:07:29;0.40;;;0.40;;
10339;SDS011;5215;48.676;9.022;2022-10-16T09:10:02;1.58;;;0.63;;
10339;SDS011;5215;48.676;9.022;2022-10-16T09:12:33;1.55;;;0.73;;
10339;SDS011;5215;48.676;9.022;2022-10-16T09:15:03;0.50;;;0.50;;
10339;SDS011;5215;48.676;9.022;2022-10-16T09:17:40;0.40;;;0.40;;
10339;SDS011;5215;48.676;9.022;2022-10-16T09:20:20;0.63;;;0.43;;
10339;SDS011;5215;48.676;9.022;2022-10-16T09:22:47;0.45;;;0.45;;
10339;SDS011;5215;48.676;9.022;2022-10-16T09:25:15;0.52;;;0.52;;
10339;SDS011;5215;48.676;9.022;2022-10-16T09:27:43;0.60;;;0.52;;
10339;SDS011;5215;48.676;9.022;2022-10-16T09:30:11;0.93;;;0.47;;
10339;SDS011;5215;48.676;9.022;2022-10-16T09:32:38;0.50;;;0.50;;
10339;SDS011;5215;48.676;9.022;2022-10-16T09:35:09;0.38;;;0.38;;
10339;SDS011;5215;48.676;9.022;2022-10-16T09:37:37;0.38;;;0.38;;
10339;SDS011;5215;48.676;9.022;2022-10-16T09:40:03;1.52;;;0.50;;
10339;SDS011;5215;48.676;9.022;2022-10-16T09:42:31;2.33;;;0.43;;
10339;SDS011;5215;48.676;9.022;2022-10-16T09:44:59;0.50;;;0.30;;
10339;SDS011;5215;48.676;9.022;2022-10-16T09:47:26;0.63;;;0.55;;
10339;SDS011;5215;48.676;9.022;2022-10-16T09:49:54;0.40;;;0.40;;
10339;SDS011;5215;48.676;9.022;2022-10-16T09:52:21;1.13;;;0.55;;
10339;SDS011;5215;48.676;9.022;2022-10-16T09:54:51;2.25;;;0.70;;
10339;SDS011;5215;48.676;9.022;2022-10-16T09:57:18;0.63;;;0.63;;
10339;SDS011;5215;48.676;9.022;2022-10-16T09:59:49;0.85;;;0.85;;
10339;SDS011;5215;48.676;9.022;2022-10-16T10:02:16;0.38;;;0.38;;
10339;SDS011;5215;48.676;9.022;2022-10-16T10:04:45;0.57;;;0.40;;
10339;SDS011;5215;48.676;9.022;2022-10-16T10:07:17;0.50;;;0.50;;
10339;SDS011;5215;48.676;9.022;2022-10-16T10:09:44;0.40;;;0.40;;
10339;SDS011;5215;48.676;9.022;2022-10-16T10:12:16;1.75;;;0.50;;
10339;SDS011;5215;48.676;9.022;2022-10-16T10:14:44;0.40;;;0.40;;
10339;SDS011;5215;48.676;9.022;2022-10-16T10:17:14;0.75;;;0.55;;
10339;SDS011;5215;48.676;9.022;2022-10-16T10:19:42;1.10;;;0.55;;
10339;SDS011;5215;48.676;9.022;2022-10-16T10:22:15;0.93;;;0.70;;
10339;SDS011;5215;48.676;9.022;2022-10-16T10:24:42;0.70;;;0.70;;
10339;SDS011;5215;48.676;9.022;2022-10-16T10:27:10;0.70;;;0.70;;
10339;SDS011;5215;48.676;9.022;2022-10-16T10:29:43;0.63;;;0.63;;
10339;SDS011;5215;48.676;9.022;2022-10-16T10:32:19;0.55;;;0.55;;
10339;SDS011;5215;48.676;9.022;2022-10-16T10:35:01;0.68;;;0.60;;
10339;SDS011;5215;48.676;9.022;2022-10-16T10:37:37;0.85;;;0.45;;
10339;SDS011;5215;48.676;9.022;2022-10-16T10:40:09;3.80;;;0.60;;
10339;SDS011;5215;48.676;9.022;2022-10-16T10:42:39;0.80;;;0.80;;
10339;SDS011;5215;48.676;9.022;2022-10-16T10:45:16;0.60;;;0.60;;
10339;SDS011;5215;48.676;9.022;2022-10-16T10:47:47;0.75;;;0.70;;
10339;SDS011;5215;48.676;9.022;2022-10-16T10:50:17;0.95;;;0.40;;
10339;SDS011;5215;48.676;9.022;2022-10-16T10:52:51;0.50;;;0.50;;
10339;SDS011;5215;48.676;9.022;2022-10-16T10:55:20;1.33;;;0.40;;
10339;SDS011;5215;48.676;9.022;2022-10-16T10:57:55;1.52;;;0.60;;
10339;SDS011;5215;48.676;9.022;2022-10-16T11:00:26;0.47;;;0.47;;
10339;SDS011;5215;48.676;9.022;2022-10-16T11:02:58;1.63;;;0.60;;
10339;SDS011;5215;48.676;9.022;2022-10-16T11:05:28;0.63;;;0.63;;
10339;SDS011;5215;48.676;9.022;2022-10-16T11:07:57;0.80;;;0.60;;
10339;SDS011;5215;48.676;9.022;2022-10-16T11:10:25;1.40;;;0.68;;
10339;SDS011;5215;48.676;9.022;2022-10-16T11:12:54;1.75;;;0.63;;
10339;SDS011;5215;48.676;9.022;2022-10-16T11:15:23;1.88;;;0.70;;
10339;SDS011;5215;48.676;9.022;2022-10-16T11:17:51;0.88;;;0.70;;
10339;SDS011;5215;48.676;9.022;2022-10-16T11:20:21;1.15;;;0.95;;
10339;SDS011;5215;48.676;9.022;2022-10-16T11:22:50;0.70;;;0.70;;
10339;SDS011;5215;48.676;9.022;2022-10-16T11:25:20;1.00;;;0.80;;
10339;SDS011;5215;48.676;9.022;2022-10-16T11:27:47;0.70;;;0.70;;
10339;SDS011;5215;48.676;9.022;2022-10-16T11:30:16;0.80;;;0.80;;
10339;SDS011;5215;48.676;9.022;2022-10-16T11:32:51;0.82;;;0.77;;
10339;SDS011;5215;48.676;9.022;2022-10-16T11:35:21;0.57;;;0.57;;
10339;SDS011;5215;48.676;9.022;2022-10-16T11:37:48;0.75;;;0.75;;
10339;SDS011;5215;48.676;9.022;2022-10-16T11:40:19;0.80;;;0.77;;
10339;SDS011;5215;48.676;9.022;2022-10-16T11:42:49;3.45;;;0.90;;
10339;SDS011;5215;48.676;9.022;2022-10-16T11:45:21;0.68;;;0.68;;
10339;SDS011;5215;48.676;9.022;2022-10-16T11:47:51;1.02;;;0.93;;
10339;SDS011;5215;48.676;9.022;2022-10-16T11:50:22;1.25;;;0.85;;
10339;SDS011;5215;48.676;9.022;2022-10-16T11:52:51;2.10;;;0.90;;
10339;SDS011;5215;48.676;9.022;2022-10-16T11:55:20;1.13;;;0.90;;
10339;SDS011;5215;48.676;9.022;2022-10-16T11:57:47;1.65;;;0.70;;
10339;SDS011;5215;48.676;9.022;2022-10-16T12:00:18;1.52;;;0.70;;
10339;SDS011;5215;48.676;9.022;2022-10-16T12:02:49;0.93;;;0.93;;
10339;SDS011;5215;48.676;9.022;2022-10-16T12:05:19;0.60;;;0.60;;
10339;SDS011;5215;48.676;9.022;2022-10-16T12:07:51;0.80;;;0.80;;
10339;SDS011;5215;48.676;9.022;2022-10-16T12:10:20;0.60;;;0.60;;
10339;SDS011;5215;48.676;9.022;2022-10-16T12:12:47;1.20;;;0.93;;
10339;SDS011;5215;48.676;9.022;2022-10-16T12:15:21;0.95;;;0.82;;
10339;SDS011;5215;48.676;9.022;2022-10-16T12:17:48;0.90;;;0.77;;
10339;SDS011;5215;48.676;9.022;2022-10-16T12:20:21;1.45;;;0.95;;
10339;SDS011;5215;48.676;9.022;2022-10-16T12:22:51;1.00;;;0.70;;
10339;SDS011;5215;48.676;9.022;2022-10-16T12:25:23;1.75;;;0.82;;
10339;SDS011;5215;48.676;9.022;2022-10-16T12:27:54;0.85;;;0.85;;
10339;SDS011;5215;48.676;9.022;2022-10-16T12:30:21;1.52;;;0.85;;
10339;SDS011;5215;48.676;9.022;2022-10-16T12:32:52;0.93;;;0.85;;
10339;SDS011;5215;48.676;9.022;2022-10-16T12:35:20;2.17;;;0.95;;
10339;SDS011;5215;48.676;9.022;2022-10-16T12:37:47;1.35;;;0.75;;
10339;SDS011;5215;48.676;9.022;2022-10-16T12:40:22;4.60;;;1.05;;
10339;SDS011;5215;48.676;9.022;2022-10-16T12:42:49;0.68;;;0.68;;
10339;SDS011;5215;48.676;9.022;2022-10-16T12:45:26;0.73;;;0.70;;
10339;SDS011;5215;48.676;9.022;2022-10-16T12:47:53;1.05;;;0.80;;
10339;SDS011;5215;48.676;9.022;2022-10-16T12:50:25;1.90;;;0.90;;
10339;SDS011;5215;48.676;9.022;2022-10-16T12:52:51;2.90;;;1.10;;
10339;SDS011;5215;48.676;9.022;2022-10-16T12:55:20;0.90;;;0.90;;
10339;SDS011;5215;48.676;9.022;2022-10-16T12:57:52;4.22;;;0.80;;
10339;SDS011;5215;48.676;9.022;2022-10-16T13:00:24;0.82;;;0.82;;
10339;SDS011;5215;48.676;9.022;2022-10-16T13:05:39;0.80;;;0.80;;
10339;SDS011;5215;48.676;9.022;2022-10-16T13:08:18;2.03;;;1.00;;
10339;SDS011;5215;48.676;9.022;2022-10-16T13:10:54;1.02;;;0.80;;
10339;SDS011;5215;48.676;9.022;2022-10-16T13:13:38;1.20;;;1.10;;
10339;SDS011;5215;48.676;9.022;2022-10-16T13:16:11;1.00;;;0.90;;
10339;SDS011;5215;48.676;9.022;2022-10-16T13:18:42;0.82;;;0.70;;
10339;SDS011;5215;48.676;9.022;2022-10-16T13:21:14;1.08;;;0.98;;
10339;SDS011;5215;48.676;9.022;2022-10-16T13:23:46;1.00;;;0.98;;
10339;SDS011;5215;48.676;9.022;2022-10-16T13:26:20;0.70;;;0.70;;
10339;SDS011;5215;48.676;9.022;2022-10-16T13:28:49;1.13;;;0.88;;
10339;SDS011;5215;48.676;9.022;2022-10-16T13:31:17;0.65;;;0.65;;
10339;SDS011;5215;48.676;9.022;2022-10-16T13:33:45;0.50;;;0.50;;
10339;SDS011;5215;48.676;9.022;2022-10-16T13:36:19;1.27;;;0.85;;
10339;SDS011;5215;48.676;9.022;2022-10-16T13:38:46;1.10;;;1.00;;
10339;SDS011;5215;48.676;9.022;2022-10-16T13:41:13;0.70;;;0.70;;
10339;SDS011;5215;48.676;9.022;2022-10-16T13:43:42;1.35;;;1.08;;
10339;SDS011;5215;48.676;9.022;2022-10-16T13:46:11;1.00;;;0.90;;
10339;SDS011;5215;48.676;9.022;2022-10-16T13:48:38;0.70;;;0.70;;
10339;SDS011;5215;48.676;9.022;2022-10-16T13:51:06;0.80;;;0.80;;
10339;SDS011;5215;48.676;9.022;2022-10-16T13:53:33;0.98;;;0.98;;
10339;SDS011;5215;48.676;9.022;2022-10-16T13:56:01;1.08;;;0.80;;
10339;SDS011;5215;48.676;9.022;2022-10-16T13:58:28;1.10;;;1.10;;
10339;SDS011;5215;48.676;9.022;2022-10-16T14:00:57;1.27;;;1.17;;
10339;SDS011;5215;48.676;9.022;2022-10-16T14:03:24;1.33;;;1.08;;
10339;SDS011;5215;48.676;9.022;2022-10-16T14:05:51;1.00;;;0.88;;
10339;SDS011;5215;48.676;9.022;2022-10-16T14:08:18;0.82;;;0.82;;
10339;SDS011;5215;48.676;9.022;2022-10-16T14:10:47;0.90;;;0.88;;
10339;SDS011;5215;48.676;9.022;2022-10-16T14:13:15;1.02;;;0.93;;
10339;SDS011;5215;48.676;9.022;2022-10-16T14:15:45;0.80;;;0.80;;
10339;SDS011;5215;48.676;9.022;2022-10-16T14:18:14;1.15;;;1.02;;
10339;SDS011;5215;48.676;9.022;2022-10-16T14:20:43;1.15;;;1.00;;
10339;SDS011;5215;48.676;9.022;2022-10-16T14:23:18;1.17;;;1.00;;
10339;SDS011;5215;48.676;9.022;2022-10-16T14:25:45;1.30;;;1.05;;
10339;SDS011;5215;48.676;9.022;2022-10-16T14:28:15;3.63;;;1.10;;
10339;SDS011;5215;48.676;9.022;2022-10-16T14:30:48;2.08;;;1.20;;
10339;SDS011;5215;48.676;9.022;2022-10-16T14:33:21;1.52;;;1.08;;
10339;SDS011;5215;48.676;9.022;2022-10-16T14:35:56;0.80;;;0.80;;
10339;SDS011;5215;48.676;9.022;2022-10-16T14:38:25;0.90;;;0.90;;
10339;SDS011;5215;48.676;9.022;2022-10-16T14:40:51;2.95;;;1.40;;
10339;SDS011;5215;48.676;9.022;2022-10-16T14:43:20;1.60;;;0.98;;
10339;SDS011;5215;48.676;9.022;2022-10-16T14:45:49;1.27;;;0.80;;
10339;SDS011;5215;48.676;9.022;2022-10-16T14:48:17;2.17;;;0.98;;
10339;SDS011;5215;48.676;9.022;2022-10-16T14:50:46;0.98;;;0.80;;
10339;SDS011;5215;48.676;9.022;2022-10-16T14:53:12;1.10;;;1.00;;
10339;SDS011;5215;48.676;9.022;2022-10-16T14:55:39;0.80;;;0.80;;
10339;SDS011;5215;48.676;9.022;2022-10-16T14:58:08;3.92;;;0.82;;
10339;SDS011;5215;48.676;9.022;2022-10-16T15:00:36;1.08;;;1.00;;
10339;SDS011;5215;48.676;9.022;2022-10-16T15:03:02;1.58;;;1.02;;
10339;SDS011;5215;48.676;9.022;2022-10-16T15:05:28;1.33;;;1.00;;
10339;SDS011;5215;48.676;9.022;2022-10-16T15:07:58;6.38;;;1.20;;
10339;SDS011;5215;48.676;9.022;2022-10-16T15:10:25;0.73;;;0.73;;